Nearby METAR Reports

 

EGQL - Leuchars Raf, United Kingdom
Distance from station: SW 17km
Updated: 20/03/2019 22:50
Few Clouds
Few Clouds
 Wind from WSW
Wind: WSW 28 km/h
Temperature: 10°C
Wind Chill: 7°C
Dew Point: 8°C
Humidity: 88%
Barometer: 1024 hPa
Clouds: Few Clouds
Visibility: 10 km
Cloud details: Few Clouds 518 m
2019/03/21 05:50 EGQL 210550Z 24015KT 9999 FEW017 10/08 Q1024 BLU
EGPN - Dundee/Riverside, United Kingdom
Distance from station: WSW 20km
Updated: 20/03/2019 12:50
NOT Current
Partly cloudy
Partly cloudy
 Wind from W
Wind: W 35 km/h
Temperature: 13°C
Dew Point: 11°C
Humidity: 88%
Barometer: 1022 hPa
Clouds: Partly cloudy
Visibility: 10 km
Cloud details: Partly cloudy 671 m
2019/03/20 19:50 EGPN 201950Z 26019KT 9999 SCT022 13/11 Q1022
 
EGPH - Edinburgh Airpor, United Kingdom
Distance from station: SSW 74km
Updated: 20/03/2019 22:50
Mostly cloudy
Mostly cloudy
 Wind from WSW
Wind: WSW 20 km/h
Temperature: 11°C
Dew Point: 9°C
Humidity: 88%
Barometer: 1025 hPa
Clouds: Mostly cloudy
Visibility: 10 km
Cloud details: Partly cloudy 488 m
Mostly cloudy 975 m
2019/03/21 05:50 EGPH 210550Z 25011KT 9999 SCT016 BKN032 11/09 Q1025
EGPD - Aberdeen/Dyce, United Kingdom
Distance from station: NNE 82km
Updated: 20/03/2019 22:20
Clear
Clear
 Wind from ESE
Wind: ESE 9 km/h
Temperature: 11°C
Dew Point: 7°C
Humidity: 77%
Barometer: 1021 hPa
Clouds: Clear
Visibility: 10 km
2019/03/21 05:20 EGPD 210520Z AUTO 12005KT 9999 NCD 11/07 Q1021 NOSIG